createdAt,value
2019-01-23T00:00:21.983Z,88.06
2019-01-23T00:01:21.965Z,87.85
2019-01-23T00:02:21.956Z,87.85
2019-01-23T00:03:21.951Z,87.74
2019-01-23T00:04:21.932Z,88.52
2019-01-23T00:05:21.935Z,88.31
2019-01-23T00:06:21.914Z,88.42
2019-01-23T00:07:21.943Z,88.62
2019-01-23T00:08:21.888Z,88.52
2019-01-23T00:09:21.892Z,88.84
2019-01-23T00:10:21.876Z,88.62
2019-01-23T00:11:21.863Z,88.52
2019-01-23T00:12:21.852Z,88.52
2019-01-23T00:13:21.843Z,88.62
2019-01-23T00:14:21.838Z,88.62
2019-01-23T00:15:21.860Z,88.84
2019-01-23T00:16:21.807Z,88.73
2019-01-23T00:17:21.807Z,88.62
2019-01-23T00:18:21.792Z,88.62
2019-01-23T00:19:21.783Z,88.62
2019-01-23T00:20:21.775Z,88.73
2019-01-23T00:21:21.765Z,88.73
2019-01-23T00:22:21.762Z,89.15
2019-01-23T00:23:21.743Z,89.26
2019-01-23T00:24:21.732Z,89.05
2019-01-23T00:25:21.717Z,89.09
2019-01-23T00:26:21.739Z,89.58
2019-01-23T00:27:21.702Z,89.69
2019-01-23T00:28:21.693Z,90.11
2019-01-23T00:29:21.682Z,89.89
2019-01-23T00:30:21.673Z,89.79
2019-01-23T00:31:21.662Z,89.69
2019-01-23T00:32:21.659Z,89.58
2019-01-23T00:33:21.643Z,90.00
2019-01-23T00:34:21.632Z,89.37
2019-01-23T00:35:21.653Z,89.15
2019-01-23T00:36:21.612Z,89.05
2019-01-23T00:37:21.610Z,88.84
2019-01-23T00:38:21.601Z,89.26
2019-01-23T00:39:21.577Z,89.15
2019-01-23T00:40:21.613Z,88.94
2019-01-23T00:41:21.561Z,89.05
2019-01-23T00:42:21.563Z,88.73
2019-01-23T00:43:21.565Z,88.84
2019-01-23T00:44:21.530Z,89.26
2019-01-23T00:45:21.521Z,89.26
2019-01-23T00:46:21.513Z,89.05
2019-01-23T00:47:21.498Z,89.26
2019-01-23T00:48:21.491Z,89.15
2019-01-23T00:49:21.493Z,89.26
2019-01-23T00:50:21.465Z,89.15
2019-01-23T00:51:21.460Z,89.15
2019-01-23T00:52:21.450Z,89.15
2019-01-23T00:53:21.441Z,88.94
2019-01-23T00:54:21.441Z,88.94
2019-01-23T00:55:21.417Z,89.26
2019-01-23T00:56:21.405Z,89.05
2019-01-23T00:57:21.408Z,89.26
2019-01-23T00:58:21.384Z,89.26
2019-01-23T00:59:21.412Z,89.47
2019-01-23T01:00:21.368Z,90.11
2019-01-23T01:01:21.355Z,89.15
2019-01-23T01:02:21.349Z,89.37
2019-01-23T01:03:21.335Z,89.15
2019-01-23T01:04:21.331Z,89.26
2019-01-23T01:05:21.359Z,89.58
2019-01-23T01:06:21.305Z,90.00
2019-01-23T01:07:21.300Z,90.00
2019-01-23T01:08:21.284Z,89.72
2019-01-23T01:09:21.274Z,90.21
2019-01-23T01:10:21.269Z,89.89
2019-01-23T01:11:21.266Z,90.11
2019-01-23T01:12:21.245Z,89.89
2019-01-23T01:13:21.241Z,90.11
2019-01-23T01:14:21.226Z,89.89
2019-01-23T01:15:21.214Z,90.25
2019-01-23T01:16:21.211Z,90.11
2019-01-23T01:17:21.194Z,89.69
2019-01-23T01:18:21.190Z,89.62
2019-01-23T01:19:21.179Z,89.89
2019-01-23T01:20:21.165Z,89.47
2019-01-23T01:21:21.168Z,89.62
2019-01-23T01:22:21.151Z,89.05
2019-01-23T01:23:21.139Z,89.15
2019-01-23T01:24:21.130Z,88.94
2019-01-23T01:25:21.114Z,89.15
2019-01-23T01:26:21.112Z,89.15
2019-01-23T01:27:21.110Z,89.05
2019-01-23T01:28:21.121Z,88.94
2019-01-23T01:29:21.079Z,89.05
2019-01-23T01:30:21.063Z,89.26
2019-01-23T01:31:21.054Z,89.05
2019-01-23T01:32:21.045Z,89.37
2019-01-23T01:33:21.056Z,89.20
2019-01-23T01:34:21.025Z,90.04
2019-01-23T01:35:21.014Z,90.25
2019-01-23T01:36:21.004Z,90.15
2019-01-23T01:37:21.001Z,90.15
2019-01-23T01:38:20.989Z,90.36
2019-01-23T01:39:20.978Z,90.78
2019-01-23T01:40:20.980Z,90.21
2019-01-23T01:41:20.952Z,90.53
2019-01-23T01:42:20.952Z,90.00
2019-01-23T01:43:20.933Z,90.00
2019-01-23T01:44:20.928Z,89.79
2019-01-23T01:45:20.927Z,89.89
2019-01-23T01:46:20.903Z,89.69
2019-01-23T01:47:20.899Z,89.47
2019-01-23T01:48:20.883Z,89.58
2019-01-23T01:49:20.875Z,89.89
2019-01-23T01:50:20.904Z,89.26
2019-01-23T01:51:20.856Z,89.26
2019-01-23T01:52:20.841Z,89.26
2019-01-23T01:53:20.836Z,89.15
2019-01-23T01:54:20.823Z,89.37
2019-01-23T01:55:20.813Z,89.94
2019-01-23T01:56:20.813Z,89.89
2019-01-23T01:57:20.792Z,90.21
2019-01-23T01:58:20.780Z,89.79
2019-01-23T01:59:20.777Z,89.15
2019-01-23T02:00:20.763Z,89.05
2019-01-23T02:01:20.881Z,89.15
2019-01-23T02:02:20.740Z,89.15
2019-01-23T02:03:20.731Z,89.37
2019-01-23T02:04:20.727Z,89.47
2019-01-23T02:05:20.717Z,89.58
2019-01-23T02:06:20.705Z,89.94
2019-01-23T02:07:20.698Z,89.79
2019-01-23T02:08:20.685Z,90.04
2019-01-23T02:09:20.681Z,90.00
2019-01-23T02:10:20.662Z,90.04
2019-01-23T02:11:20.649Z,90.00
2019-01-23T02:12:20.644Z,90.15
2019-01-23T02:13:20.633Z,90.25
2019-01-23T02:14:20.621Z,89.83
2019-01-23T02:15:20.649Z,90.57
2019-01-23T02:16:20.601Z,90.47
2019-01-23T02:17:20.596Z,90.15
2019-01-23T02:18:20.585Z,89.83
2019-01-23T02:19:20.575Z,90.04
2019-01-23T02:20:20.565Z,89.94
2019-01-23T02:21:20.562Z,89.94
2019-01-23T02:22:20.545Z,90.04
2019-01-23T02:23:20.534Z,90.00
2019-01-23T02:24:20.536Z,89.89
2019-01-23T02:25:20.517Z,90.04
2019-01-23T02:26:20.543Z,89.89
2019-01-23T02:27:20.489Z,89.89
2019-01-23T02:28:20.485Z,89.26
2019-01-23T02:29:20.468Z,89.37
2019-01-23T02:30:20.467Z,90.00
2019-01-23T02:31:20.454Z,89.58
2019-01-23T02:32:20.452Z,89.15
2019-01-23T02:33:20.432Z,89.05
2019-01-23T02:34:20.433Z,89.26
2019-01-23T02:35:20.412Z,89.26
2019-01-23T02:36:20.397Z,89.26
2019-01-23T02:37:20.390Z,89.15
2019-01-23T02:38:20.397Z,89.15
2019-01-23T02:39:20.368Z,89.05
2019-01-23T02:40:20.387Z,89.37
2019-01-23T02:41:20.348Z,89.26
2019-01-23T02:42:20.344Z,89.94
2019-01-23T02:43:20.335Z,89.69
2019-01-23T02:44:20.326Z,90.25
2019-01-23T02:45:20.322Z,90.04
2019-01-23T02:46:20.298Z,89.94
2019-01-23T02:47:20.295Z,90.04
2019-01-23T02:48:20.282Z,90.04
2019-01-23T02:49:20.267Z,90.04
2019-01-23T02:50:20.309Z,89.89
2019-01-23T02:51:20.252Z,90.11
2019-01-23T02:52:20.237Z,90.25
2019-01-23T02:53:20.233Z,89.94
2019-01-23T02:54:20.224Z,89.94
2019-01-23T02:55:20.218Z,89.94
2019-01-23T02:56:20.218Z,89.72
2019-01-23T02:57:20.188Z,90.42
2019-01-23T02:58:20.179Z,90.15
2019-01-23T02:59:20.165Z,90.00
2019-01-23T03:00:20.158Z,90.25
2019-01-23T03:01:20.190Z,90.04
2019-01-23T03:02:20.139Z,90.04
2019-01-23T03:03:20.132Z,90.04
2019-01-23T03:04:20.117Z,90.04
2019-01-23T03:05:20.106Z,90.15
2019-01-23T03:06:20.100Z,90.04
2019-01-23T03:07:20.104Z,90.15
2019-01-23T03:08:20.080Z,90.04
2019-01-23T03:09:20.070Z,89.94
2019-01-23T03:10:20.061Z,89.94
2019-01-23T03:11:20.052Z,90.04
2019-01-23T03:12:20.047Z,90.04
2019-01-23T03:13:20.031Z,90.47
2019-01-23T03:14:20.019Z,90.47
2019-01-23T03:15:20.006Z,90.15
2019-01-23T03:16:19.994Z,89.83
2019-01-23T03:17:20.007Z,90.25
2019-01-23T03:18:19.974Z,90.04
2019-01-23T03:19:19.966Z,90.11
2019-01-23T03:20:19.959Z,89.72
2019-01-23T03:21:19.946Z,89.79
2019-01-23T03:22:19.933Z,89.87
2019-01-23T03:23:19.935Z,90.57
2019-01-23T03:24:19.918Z,90.36
2019-01-23T03:25:19.914Z,90.25
2019-01-23T03:26:19.894Z,90.15
2019-01-23T03:27:19.887Z,90.36
2019-01-23T03:28:19.881Z,89.94
2019-01-23T03:29:24.619Z,89.94
2019-01-23T03:30:19.865Z,89.83
2019-01-23T03:31:19.848Z,90.04
2019-01-23T03:32:19.848Z,89.94
2019-01-23T03:33:19.848Z,90.15
2019-01-23T03:34:19.852Z,89.83
2019-01-23T03:35:19.808Z,90.47
2019-01-23T03:36:19.796Z,90.04
2019-01-23T03:37:19.794Z,90.25
2019-01-23T03:38:19.773Z,90.47
2019-01-23T03:39:19.764Z,90.36
2019-01-23T03:40:19.761Z,90.04
2019-01-23T03:41:19.747Z,89.83
2019-01-23T03:42:19.737Z,90.47
2019-01-23T03:43:19.728Z,90.36
2019-01-23T03:44:19.722Z,90.57
2019-01-23T03:45:19.722Z,89.94
2019-01-23T03:46:19.692Z,89.94
2019-01-23T03:47:19.683Z,90.15
2019-01-23T03:48:26.476Z,89.83
2019-01-23T03:49:19.674Z,90.04
2019-01-23T03:50:19.654Z,89.94
2019-01-23T03:51:19.653Z,89.94
2019-01-23T03:52:19.639Z,90.95
2019-01-23T03:53:19.623Z,90.78
2019-01-23T03:54:19.614Z,89.89
2019-01-23T03:55:19.615Z,90.04
2019-01-23T03:56:19.606Z,90.04
2019-01-23T03:57:19.583Z,89.83
2019-01-23T03:58:19.580Z,90.15
2019-01-23T03:59:19.568Z,90.04
2019-01-23T04:00:19.592Z,89.94
2019-01-23T04:01:19.545Z,90.04
2019-01-23T04:02:19.537Z,89.83
2019-01-23T04:03:19.527Z,89.40
2019-01-23T04:04:19.517Z,89.94
2019-01-23T04:05:19.521Z,89.09
2019-01-23T04:06:19.506Z,88.98
2019-01-23T04:07:19.483Z,89.30
2019-01-23T04:08:19.478Z,88.67
2019-01-23T04:09:19.462Z,88.45
2019-01-23T04:10:19.451Z,88.45
2019-01-23T04:11:19.478Z,88.67
2019-01-23T04:12:19.432Z,88.77
2019-01-23T04:13:19.428Z,88.45
2019-01-23T04:14:19.413Z,88.92
2019-01-23T04:15:19.403Z,88.45
2019-01-23T04:16:19.397Z,88.49
2019-01-23T04:17:19.406Z,88.49
2019-01-23T04:18:19.377Z,88.28
2019-01-23T04:19:19.365Z,88.49
2019-01-23T04:20:19.352Z,89.03
2019-01-23T04:21:19.349Z,88.49
2019-01-23T04:22:19.341Z,88.56
2019-01-23T04:23:19.325Z,88.18
2019-01-23T04:24:19.317Z,88.49
2019-01-23T04:25:19.306Z,88.71
2019-01-23T04:26:19.297Z,88.49
2019-01-23T04:27:19.305Z,88.60
2019-01-23T04:28:19.276Z,88.28
2019-01-23T04:29:19.263Z,88.60
2019-01-23T04:30:19.284Z,88.39
2019-01-23T04:31:19.242Z,88.32
2019-01-23T04:32:19.268Z,88.28
2019-01-23T04:33:19.230Z,88.18
2019-01-23T04:34:19.214Z,88.60
2019-01-23T04:35:19.211Z,88.49
2019-01-23T04:36:19.194Z,88.39
2019-01-23T04:37:19.183Z,88.45
2019-01-23T04:38:19.191Z,88.49
2019-01-23T04:39:19.167Z,88.18
2019-01-23T04:40:19.158Z,88.28
2019-01-23T04:41:19.147Z,87.75
2019-01-23T04:42:19.138Z,87.54
2019-01-23T04:43:19.158Z,87.75
2019-01-23T04:44:19.115Z,87.86
2019-01-23T04:45:19.109Z,88.18
2019-01-23T04:46:19.098Z,87.65
2019-01-23T04:47:19.088Z,87.54
2019-01-23T04:48:19.075Z,87.43
2019-01-23T04:49:19.075Z,87.65
2019-01-23T04:50:19.061Z,87.65
2019-01-23T04:51:19.049Z,88.11
2019-01-23T04:52:19.033Z,88.07
2019-01-23T04:53:19.028Z,88.07
2019-01-23T04:54:19.027Z,88.60
2019-01-23T04:55:19.006Z,88.07
2019-01-23T04:56:19.001Z,87.65
2019-01-23T04:57:18.989Z,86.80
2019-01-23T04:58:18.973Z,86.69
2019-01-23T04:59:18.980Z,86.80
2019-01-23T05:00:18.967Z,86.48
2019-01-23T05:01:18.954Z,86.48
2019-01-23T05:02:18.934Z,87.12
2019-01-23T05:03:18.923Z,86.69
2019-01-23T05:04:18.916Z,87.54
2019-01-23T05:05:18.911Z,87.33
2019-01-23T05:06:18.928Z,86.69
2019-01-23T05:07:18.884Z,87.69
2019-01-23T05:08:18.877Z,86.69
2019-01-23T05:09:18.870Z,87.96
2019-01-23T05:10:18.854Z,87.12
2019-01-23T05:11:18.844Z,86.63
2019-01-23T05:12:18.846Z,87.71
2019-01-23T05:13:18.829Z,88.18
2019-01-23T05:14:18.818Z,88.49
2019-01-23T05:15:18.807Z,88.39
2019-01-23T05:16:18.794Z,87.61
2019-01-23T05:17:18.796Z,87.75
2019-01-23T05:18:18.779Z,87.43
2019-01-23T05:19:18.770Z,87.86
2019-01-23T05:20:18.762Z,87.29
2019-01-23T05:21:18.748Z,87.01
2019-01-23T05:22:18.771Z,86.87
2019-01-23T05:23:18.729Z,87.12
2019-01-23T05:24:18.715Z,86.69
2019-01-23T05:25:18.709Z,86.48
2019-01-23T05:26:18.699Z,87.12
2019-01-23T05:27:18.690Z,87.01
2019-01-23T05:28:18.711Z,87.01
2019-01-23T05:29:18.671Z,86.48
2019-01-23T05:30:18.659Z,87.01
2019-01-23T05:31:18.649Z,87.12
2019-01-23T05:32:18.658Z,87.33
2019-01-23T05:33:18.627Z,87.54
2019-01-23T05:34:18.624Z,86.63
2019-01-23T05:35:18.609Z,87.26
2019-01-23T05:36:18.606Z,87.01
2019-01-23T05:37:18.589Z,87.33
2019-01-23T05:38:18.575Z,87.75
2019-01-23T05:39:18.571Z,87.96
2019-01-23T05:40:18.567Z,88.11
2019-01-23T05:41:18.556Z,87.90
2019-01-23T05:42:18.538Z,87.69
2019-01-23T05:43:18.529Z,87.79
2019-01-23T05:44:18.536Z,87.94
2019-01-23T05:45:18.514Z,88.43
2019-01-23T05:46:18.506Z,88.75
2019-01-23T05:47:18.484Z,89.06
2019-01-23T05:48:18.480Z,88.43
2019-01-23T05:49:18.470Z,87.58
2019-01-23T05:50:18.468Z,87.90
2019-01-23T05:51:18.450Z,87.90
2019-01-23T05:52:18.433Z,87.65
2019-01-23T05:53:18.439Z,87.58
2019-01-23T05:54:18.421Z,87.69
2019-01-23T05:55:18.415Z,87.69
2019-01-23T05:56:18.462Z,87.79
2019-01-23T05:57:18.388Z,87.69
2019-01-23T05:58:18.387Z,87.58
2019-01-23T05:59:18.374Z,87.69
2019-01-23T06:00:18.394Z,87.79
2019-01-23T06:01:18.350Z,88.01
2019-01-23T06:02:18.345Z,88.01
2019-01-23T06:03:18.330Z,88.01
2019-01-23T06:04:18.321Z,88.11
2019-01-23T06:05:18.308Z,88.11
2019-01-23T06:06:18.303Z,87.73
2019-01-23T06:07:18.285Z,87.58
2019-01-23T06:08:18.280Z,87.58
2019-01-23T06:09:18.264Z,87.79
2019-01-23T06:10:18.260Z,88.04
2019-01-23T06:11:18.274Z,87.48
2019-01-23T06:12:18.235Z,87.37
2019-01-23T06:13:18.225Z,87.16
2019-01-23T06:14:18.220Z,87.05
2019-01-23T06:15:18.208Z,87.58
2019-01-23T06:16:18.200Z,87.69
2019-01-23T06:17:18.201Z,88.32
2019-01-23T06:18:18.180Z,87.90
2019-01-23T06:19:18.170Z,88.32
2019-01-23T06:20:18.156Z,88.21
2019-01-23T06:21:18.146Z,87.05
2019-01-23T06:22:18.154Z,87.05
2019-01-23T06:23:18.138Z,86.31
2019-01-23T06:24:18.121Z,87.37
2019-01-23T06:25:18.114Z,86.88
2019-01-23T06:26:18.100Z,86.94
2019-01-23T06:27:18.090Z,87.48
2019-01-23T06:28:18.088Z,86.84
2019-01-23T06:29:18.067Z,86.21
2019-01-23T06:30:18.058Z,86.99
2019-01-23T06:31:18.047Z,86.99
2019-01-23T06:32:18.037Z,86.99
2019-01-23T06:33:18.033Z,87.24
2019-01-23T06:34:18.024Z,87.09
2019-01-23T06:35:18.007Z,88.04
2019-01-23T06:36:18.002Z,87.30
2019-01-23T06:37:17.985Z,87.87
2019-01-23T06:38:17.974Z,88.15
2019-01-23T06:39:18.005Z,88.04
2019-01-23T06:40:17.960Z,87.09
2019-01-23T06:41:17.946Z,87.02
2019-01-23T06:42:17.947Z,86.99
2019-01-23T06:43:17.926Z,87.09
2019-01-23T06:44:17.924Z,87.94
2019-01-23T06:45:17.919Z,87.94
2019-01-23T06:46:17.895Z,87.62
2019-01-23T06:47:17.885Z,87.73
2019-01-23T06:48:17.881Z,87.73
2019-01-23T06:49:17.865Z,87.73
2019-01-23T06:50:17.864Z,87.83
2019-01-23T06:51:17.855Z,87.73
2019-01-23T06:52:17.836Z,87.83
2019-01-23T06:53:17.830Z,87.73
2019-01-23T06:54:17.822Z,87.73
2019-01-23T06:55:17.810Z,87.62
2019-01-23T06:56:17.808Z,87.62
2019-01-23T06:57:17.785Z,87.62
2019-01-23T06:58:17.781Z,87.62
2019-01-23T06:59:17.770Z,88.04
2019-01-23T07:00:17.767Z,88.04
2019-01-23T07:01:17.784Z,87.83
2019-01-23T07:02:17.735Z,87.94
2019-01-23T07:03:17.730Z,88.15
2019-01-23T07:04:17.723Z,88.36
2019-01-23T07:05:17.710Z,88.04
2019-01-23T07:06:17.695Z,89.00
2019-01-23T07:07:17.692Z,88.79
2019-01-23T07:08:17.689Z,89.31
2019-01-23T07:09:17.665Z,90.12
2019-01-23T07:10:17.661Z,88.75
2019-01-23T07:11:17.647Z,88.21
2019-01-23T07:12:17.646Z,88.01
2019-01-23T07:13:17.629Z,87.94
2019-01-23T07:14:17.615Z,88.04
2019-01-23T07:15:17.606Z,88.36
2019-01-23T07:16:17.616Z,88.36
2019-01-23T07:17:17.585Z,88.15
2019-01-23T07:18:17.587Z,88.36
2019-01-23T07:19:17.571Z,88.26
2019-01-23T07:20:17.556Z,88.36
2019-01-23T07:21:17.545Z,88.47
2019-01-23T07:22:17.581Z,88.15
2019-01-23T07:23:17.525Z,88.26
2019-01-23T07:24:17.520Z,88.47
2019-01-23T07:25:17.504Z,88.36
2019-01-23T07:26:17.501Z,88.47
2019-01-23T07:27:17.485Z,88.21
2019-01-23T07:28:17.483Z,88.32
2019-01-23T07:29:17.466Z,88.01
2019-01-23T07:30:23.986Z,88.36
2019-01-23T07:31:18.448Z,88.57
2019-01-23T07:32:17.435Z,88.43
2019-01-23T07:33:17.444Z,88.36
2019-01-23T07:34:17.422Z,88.53
2019-01-23T07:35:17.409Z,89.13
2019-01-23T07:36:17.400Z,90.93
2019-01-23T07:37:17.391Z,89.23
2019-01-23T07:38:17.391Z,88.71
2019-01-23T07:39:17.365Z,88.39
2019-01-23T07:40:17.359Z,88.07
2019-01-23T07:41:17.350Z,88.07
2019-01-23T07:42:17.335Z,87.65
2019-01-23T07:43:17.364Z,87.43
2019-01-23T07:44:17.322Z,87.86
2019-01-23T07:45:17.310Z,87.96
2019-01-23T07:46:17.296Z,87.65
2019-01-23T07:47:17.289Z,87.65
2019-01-23T07:48:17.277Z,88.60
2019-01-23T07:49:17.280Z,88.39
2019-01-23T07:50:17.261Z,88.18
2019-01-23T07:51:17.245Z,88.18
2019-01-23T07:52:17.242Z,88.39
2019-01-23T07:53:17.232Z,88.60
2019-01-23T07:54:17.237Z,88.24
2019-01-23T07:55:17.210Z,87.93
2019-01-23T07:56:17.201Z,87.86
2019-01-23T07:57:17.193Z,87.50
2019-01-23T07:58:17.181Z,87.75
2019-01-23T07:59:17.186Z,88.18
2019-01-23T08:00:17.153Z,88.35
2019-01-23T08:01:17.150Z,87.86
2019-01-23T08:02:17.135Z,87.43
2019-01-23T08:03:17.130Z,88.13
2019-01-23T08:04:17.118Z,88.67
2019-01-23T08:05:19.531Z,89.09
2019-01-23T08:06:17.113Z,88.88
2019-01-23T08:07:17.089Z,88.28
2019-01-23T08:08:17.074Z,88.77
2019-01-23T08:09:17.084Z,88.88
2019-01-23T08:10:17.054Z,88.24
2019-01-23T08:11:17.049Z,87.50
2019-01-23T08:12:17.033Z,87.54
2019-01-23T08:13:17.077Z,87.65
2019-01-23T08:14:17.017Z,87.86
2019-01-23T08:15:17.019Z,88.18
2019-01-23T08:16:16.994Z,87.75
2019-01-23T08:17:16.994Z,88.03
2019-01-23T08:18:16.978Z,87.93
2019-01-23T08:19:16.961Z,88.07
2019-01-23T08:20:16.977Z,88.07
2019-01-23T08:21:16.943Z,88.13
2019-01-23T08:22:16.937Z,88.13
2019-01-23T08:23:16.920Z,87.82
2019-01-23T08:24:16.917Z,87.50
2019-01-23T08:25:16.908Z,87.54
2019-01-23T08:26:16.891Z,87.82
2019-01-23T08:27:16.884Z,87.65
2019-01-23T08:28:16.883Z,87.82
2019-01-23T08:29:16.862Z,87.71
2019-01-23T08:30:16.856Z,87.57
2019-01-23T08:31:16.852Z,87.46
2019-01-23T08:32:16.834Z,87.46
2019-01-23T08:33:16.824Z,87.68
2019-01-23T08:34:16.818Z,87.93
2019-01-23T08:35:16.802Z,87.88
2019-01-23T08:36:16.831Z,87.88
2019-01-23T08:37:16.784Z,87.15
2019-01-23T08:38:16.768Z,87.88
2019-01-23T08:39:16.760Z,87.88
2019-01-23T08:40:16.750Z,87.78
2019-01-23T08:41:16.743Z,86.93
2019-01-23T08:42:16.760Z,87.46
2019-01-23T08:43:16.724Z,86.93
2019-01-23T08:44:16.706Z,86.41
2019-01-23T08:45:16.710Z,86.30
2019-01-23T08:46:16.692Z,86.51
2019-01-23T08:47:16.681Z,86.51
2019-01-23T08:48:16.686Z,87.04
2019-01-23T08:49:16.655Z,87.25
2019-01-23T08:50:16.655Z,87.15
2019-01-23T08:51:16.636Z,87.25
2019-01-23T08:52:16.625Z,87.88
2019-01-23T08:53:16.618Z,87.78
2019-01-23T08:54:16.645Z,87.88
2019-01-23T08:55:16.599Z,87.15
2019-01-23T08:56:16.584Z,86.93
2019-01-23T08:57:16.574Z,87.15
2019-01-23T08:58:16.569Z,86.68
2019-01-23T08:59:16.558Z,85.94
2019-01-23T09:00:16.565Z,86.47
2019-01-23T09:01:16.544Z,86.51
2019-01-23T09:02:16.522Z,86.93
2019-01-23T09:03:16.513Z,86.72
2019-01-23T09:04:16.515Z,87.15
2019-01-23T09:05:16.493Z,86.93
2019-01-23T09:06:16.512Z,87.04
2019-01-23T09:07:16.483Z,87.15
2019-01-23T09:08:16.463Z,86.93
2019-01-23T09:09:16.451Z,86.93
2019-01-23T09:10:16.445Z,87.15
2019-01-23T09:11:16.431Z,86.93
2019-01-23T09:12:16.438Z,87.53
2019-01-23T09:13:16.410Z,87.15
2019-01-23T09:14:16.399Z,87.42
2019-01-23T09:15:16.391Z,87.00
2019-01-23T09:16:16.380Z,86.90
2019-01-23T09:17:16.383Z,86.47
2019-01-23T09:18:16.374Z,85.91
2019-01-23T09:19:16.348Z,86.22
2019-01-23T09:20:16.339Z,86.43
2019-01-23T09:21:16.333Z,85.91
2019-01-23T09:22:16.324Z,86.11
2019-01-23T09:23:16.329Z,85.91
2019-01-23T09:24:16.312Z,85.27
2019-01-23T09:25:16.289Z,85.55
2019-01-23T09:26:16.287Z,85.13
2019-01-23T09:27:16.280Z,84.60
2019-01-23T09:28:16.262Z,84.84
2019-01-23T09:29:16.257Z,85.38
2019-01-23T09:30:16.248Z,85.59
2019-01-23T09:31:16.232Z,85.38
2019-01-23T09:32:16.229Z,85.80
2019-01-23T09:33:16.217Z,85.27
2019-01-23T09:34:16.203Z,84.95
2019-01-23T09:35:16.187Z,85.16
2019-01-23T09:36:16.182Z,85.41
2019-01-23T09:37:16.167Z,86.11
2019-01-23T09:38:16.170Z,85.69
2019-01-23T09:39:16.188Z,85.38
2019-01-23T09:40:16.145Z,85.48
2019-01-23T09:41:17.246Z,85.59
2019-01-23T09:42:16.117Z,84.81
2019-01-23T09:43:16.111Z,84.60
2019-01-23T09:44:16.098Z,83.93
2019-01-23T09:45:16.097Z,83.72
2019-01-23T09:46:16.077Z,83.29
2019-01-23T09:47:16.072Z,83.50
2019-01-23T09:48:16.059Z,82.83
2019-01-23T09:49:16.051Z,82.27
2019-01-23T09:50:16.044Z,82.17
2019-01-23T09:51:16.025Z,82.27
2019-01-23T09:52:16.034Z,81.85
2019-01-23T09:53:16.008Z,81.63
2019-01-23T09:54:15.994Z,81.53
2019-01-23T09:55:15.996Z,81.63
2019-01-23T09:56:15.978Z,81.78
2019-01-23T09:57:15.963Z,81.67
2019-01-23T09:58:15.964Z,82.24
2019-01-23T09:59:15.943Z,81.78
2019-01-23T10:00:15.944Z,81.25
2019-01-23T10:01:15.926Z,80.79
2019-01-23T10:02:15.917Z,80.65
2019-01-23T10:03:15.916Z,82.23
2019-01-23T10:04:15.903Z,83.04
2019-01-23T10:05:15.886Z,80.62
2019-01-23T10:06:15.883Z,78.92
2019-01-23T10:07:15.860Z,78.58
2019-01-23T10:08:15.851Z,77.84
2019-01-23T10:09:15.839Z,77.73
2019-01-23T10:10:15.827Z,77.63
2019-01-23T10:11:15.834Z,77.17
2019-01-23T10:12:15.814Z,77.38
2019-01-23T10:13:15.805Z,77.59
2019-01-23T10:14:15.793Z,77.20
2019-01-23T10:15:15.781Z,77.17
2019-01-23T10:16:15.781Z,77.59
2019-01-23T10:17:15.762Z,77.49
2019-01-23T10:18:15.786Z,77.70
2019-01-23T10:19:15.741Z,77.52
2019-01-23T10:20:15.731Z,77.31
2019-01-23T10:21:15.722Z,77.10
2019-01-23T10:22:15.712Z,77.34
2019-01-23T10:23:15.695Z,77.34
2019-01-23T10:24:15.699Z,77.45
2019-01-23T10:25:16.884Z,77.24
2019-01-23T10:26:15.670Z,77.73
2019-01-23T10:27:15.660Z,77.84
2019-01-23T10:28:15.649Z,75.94
2019-01-23T10:29:15.652Z,75.94
2019-01-23T10:30:15.626Z,76.54
2019-01-23T10:31:15.613Z,75.98
2019-01-23T10:32:15.603Z,75.45
2019-01-23T10:33:15.601Z,75.35
2019-01-23T10:34:15.590Z,75.56
2019-01-23T10:35:15.591Z,74.40
2019-01-23T10:36:15.567Z,74.40
2019-01-23T10:37:19.521Z,74.40
2019-01-23T10:38:15.546Z,74.54
2019-01-23T10:39:15.531Z,74.43
2019-01-23T10:40:15.531Z,75.59
2019-01-23T10:41:15.509Z,76.36
2019-01-23T10:42:15.517Z,75.94
2019-01-23T10:43:15.493Z,76.12
2019-01-23T10:44:15.485Z,75.63
2019-01-23T10:45:15.478Z,75.66
2019-01-23T10:46:15.460Z,76.40
2019-01-23T10:47:15.446Z,76.75
2019-01-23T10:48:15.490Z,77.10
2019-01-23T10:49:15.430Z,77.73
2019-01-23T10:50:15.424Z,77.84
2019-01-23T10:51:15.406Z,77.84
2019-01-23T10:52:15.398Z,77.80
2019-01-23T10:53:15.385Z,77.48
2019-01-23T10:54:15.381Z,77.48
2019-01-23T10:55:15.376Z,77.73
2019-01-23T10:56:15.362Z,77.59
2019-01-23T10:57:15.344Z,77.45
2019-01-23T10:58:15.339Z,77.70
2019-01-23T10:59:15.326Z,77.34
2019-01-23T11:00:15.328Z,76.50
2019-01-23T11:01:15.304Z,76.40
2019-01-23T11:02:15.300Z,76.75
2019-01-23T11:03:15.323Z,77.38
2019-01-23T11:04:15.276Z,77.80
2019-01-23T11:05:15.269Z,77.28
2019-01-23T11:06:15.258Z,77.48
2019-01-23T11:07:15.247Z,77.17
2019-01-23T11:08:15.233Z,77.38
2019-01-23T11:09:15.290Z,77.28
2019-01-23T11:10:15.229Z,77.48
2019-01-23T11:11:15.203Z,78.02
2019-01-23T11:12:15.206Z,77.59
2019-01-23T11:13:15.181Z,77.34
2019-01-23T11:14:15.179Z,77.56
2019-01-23T11:15:15.178Z,76.57
2019-01-23T11:16:15.163Z,76.08
2019-01-23T11:17:15.157Z,75.87
2019-01-23T11:18:15.134Z,75.84
2019-01-23T11:19:15.131Z,76.15
2019-01-23T11:20:15.120Z,76.05
2019-01-23T11:21:15.105Z,78.16
2019-01-23T11:22:15.102Z,77.52
2019-01-23T11:23:15.088Z,77.59
2019-01-23T11:24:15.077Z,80.82
2019-01-23T11:25:15.108Z,76.09
2019-01-23T11:26:15.052Z,74.40
2019-01-23T11:27:15.047Z,73.66
2019-01-23T11:28:15.035Z,74.29
2019-01-23T11:29:15.025Z,73.56
2019-01-23T11:30:15.016Z,73.56
2019-01-23T11:31:20.313Z,73.98
2019-01-23T11:32:15.990Z,73.14
2019-01-23T11:33:14.983Z,72.92
2019-01-23T11:34:14.983Z,74.47
2019-01-23T11:35:14.971Z,73.60
2019-01-23T11:36:14.955Z,72.02
2019-01-23T11:37:14.944Z,71.81
2019-01-23T11:38:14.926Z,71.18
2019-01-23T11:39:14.932Z,70.97
2019-01-23T11:40:14.908Z,72.02
2019-01-23T11:41:14.899Z,72.37
2019-01-23T11:42:14.897Z,71.91
2019-01-23T11:43:14.892Z,71.73
2019-01-23T11:44:14.864Z,71.95
2019-01-23T11:45:14.874Z,72.68
2019-01-23T11:46:14.843Z,72.19
2019-01-23T11:47:14.846Z,72.08
2019-01-23T11:48:14.865Z,72.61
2019-01-23T11:49:14.827Z,72.50
2019-01-23T11:50:21.155Z,72.40
2019-01-23T11:51:15.789Z,73.03
2019-01-23T11:52:14.788Z,73.28
2019-01-23T11:53:14.782Z,74.01
2019-01-23T11:54:14.758Z,73.70
2019-01-23T11:55:14.754Z,73.49
2019-01-23T11:56:14.743Z,73.70
2019-01-23T11:57:14.728Z,73.49
2019-01-23T11:58:14.729Z,72.86
2019-01-23T11:59:14.713Z,72.92
2019-01-23T12:00:14.703Z,72.72
2019-01-23T12:01:14.715Z,72.64
2019-01-23T12:02:14.684Z,72.86
2019-01-23T12:03:20.702Z,73.10
2019-01-23T12:04:15.657Z,73.52
2019-01-23T12:05:14.679Z,73.83
2019-01-23T12:06:14.634Z,73.73
2019-01-23T12:07:14.630Z,74.05
2019-01-23T12:08:14.612Z,73.83
2019-01-23T12:09:14.620Z,73.97
2019-01-23T12:10:14.596Z,73.76
2019-01-23T12:11:14.736Z,74.92
2019-01-23T12:12:14.581Z,74.08
2019-01-23T12:13:14.564Z,74.08
2019-01-23T12:14:15.469Z,74.85
2019-01-23T12:15:14.546Z,74.74
2019-01-23T12:16:14.539Z,74.64
2019-01-23T12:17:14.535Z,74.36
2019-01-23T12:18:14.566Z,74.99
2019-01-23T12:19:14.504Z,75.20
2019-01-23T12:20:14.518Z,74.78
2019-01-23T12:21:14.486Z,74.29
2019-01-23T12:22:14.470Z,75.24
2019-01-23T12:23:14.464Z,75.76
2019-01-23T12:24:14.995Z,76.08
2019-01-23T12:25:14.452Z,75.84
2019-01-23T12:26:14.481Z,76.04
2019-01-23T12:27:14.432Z,78.58
2019-01-23T12:28:14.413Z,76.12
2019-01-23T12:29:14.408Z,74.32
2019-01-23T12:30:14.393Z,74.64
2019-01-23T12:31:14.406Z,75.16
2019-01-23T12:32:14.376Z,74.46
2019-01-23T12:33:14.357Z,75.13
2019-01-23T12:34:14.347Z,73.66
2019-01-23T12:35:14.336Z,73.76
2019-01-23T12:36:14.327Z,74.11
2019-01-23T12:37:14.324Z,74.01
2019-01-23T12:38:14.312Z,74.11
2019-01-23T12:39:14.294Z,74.19
2019-01-23T12:40:14.291Z,74.08
2019-01-23T12:41:14.313Z,73.45
2019-01-23T12:42:14.276Z,73.38
2019-01-23T12:43:14.260Z,72.54
2019-01-23T12:44:14.245Z,71.77
2019-01-23T12:45:14.237Z,70.89
2019-01-23T12:46:14.237Z,70.06
2019-01-23T12:47:14.226Z,70.68
2019-01-23T12:48:14.252Z,69.81
2019-01-23T12:49:14.194Z,68.84
2019-01-23T12:50:14.181Z,68.62
2019-01-23T12:51:14.172Z,68.76
2019-01-23T12:52:14.167Z,69.49